Queensport, Canada
Current Conditions -  °F | °C
As of 1:24 PM on Thursday 30 Oct 2014 (Local Time) from CYPD Reporting Station
Light Rain Light Rain  
Wind Chill: 50°   Ceiling: 8500
Heat Index: 50°   Visibility: 6mi
Dew Point: 48°   Wind: 9mph
Humidity: 94%   Direction: 290°WNW
Pressure: 29.75"   Gusts: NA
Location:  45.35°N, 61.25°W
Report Text: CYPD 301624Z AUTO 29008KT 6SM -RA BR FEW029 SCT045 OVC085 10/09 A2975 RMK SLP075
Loading
Personal Weather Stations






























Interactive Weather Map
Tropical Storm Tracking
New forecast layout! Learn more

10-Day Weather Forecast

Advertisements
Track Severe Weather on mobile